createdAt,value
2019-04-29T00:02:08.524Z,7.90
2019-04-29T00:04:37.121Z,7.80
2019-04-29T00:07:06.003Z,7.80
2019-04-29T00:09:34.523Z,7.70
2019-04-29T00:12:03.251Z,7.60
2019-04-29T00:14:33.438Z,7.50
2019-04-29T00:17:03.675Z,7.60
2019-04-29T00:19:42.774Z,7.70
2019-04-29T00:22:11.299Z,7.60
2019-04-29T00:24:39.879Z,7.70
2019-04-29T00:27:08.402Z,7.30
2019-04-29T00:29:36.865Z,7.00
2019-04-29T00:32:05.715Z,7.30
2019-04-29T00:34:34.311Z,7.00
2019-04-29T00:37:07.223Z,6.80
2019-04-29T00:39:49.670Z,6.50
2019-04-29T00:42:25.369Z,6.30
2019-04-29T00:44:53.807Z,6.10
2019-04-29T00:47:22.336Z,6.00
2019-04-29T00:49:50.858Z,5.90
2019-04-29T00:52:19.315Z,5.70
2019-04-29T00:54:49.547Z,5.50
2019-04-29T00:57:18.079Z,5.40
2019-04-29T00:59:46.522Z,5.30
2019-04-29T01:02:14.980Z,5.30
2019-04-29T01:04:43.430Z,5.20
2019-04-29T01:07:12.016Z,5.10
2019-04-29T01:09:40.839Z,5.00
2019-04-29T01:12:09.352Z,5.00
2019-04-29T01:14:37.810Z,4.90
2019-04-29T01:17:06.249Z,4.80
2019-04-29T01:19:35.086Z,4.80
2019-04-29T01:22:03.669Z,4.70
2019-04-29T01:24:32.175Z,4.60
2019-04-29T01:27:02.268Z,4.60
2019-04-29T01:29:34.415Z,4.70
2019-04-29T01:32:03.025Z,4.60
2019-04-29T01:34:51.571Z,4.40
2019-04-29T01:37:20.031Z,4.30
2019-04-29T01:40:02.958Z,4.20
2019-04-29T01:42:33.131Z,4.20
2019-04-29T01:45:01.594Z,4.10
2019-04-29T01:47:30.055Z,4.10
2019-04-29T01:49:58.497Z,4.10
2019-04-29T01:52:27.015Z,4.00
2019-04-29T01:54:55.468Z,4.00
2019-04-29T01:57:23.910Z,4.00
2019-04-29T01:59:52.375Z,3.90
2019-04-29T02:02:20.841Z,3.70
2019-04-29T02:04:49.361Z,3.70
2019-04-29T02:07:17.818Z,3.70
2019-04-29T02:09:47.902Z,3.90
2019-04-29T02:12:16.358Z,3.80
2019-04-29T02:14:44.804Z,3.90
2019-04-29T02:17:13.332Z,3.80
2019-04-29T02:19:41.788Z,3.80
2019-04-29T02:22:17.964Z,3.70
2019-04-29T02:24:54.027Z,3.70
2019-04-29T02:27:22.480Z,3.60
2019-04-29T02:29:50.944Z,3.60
2019-04-29T02:32:19.387Z,3.50
2019-04-29T02:34:47.848Z,3.50
2019-04-29T02:37:17.951Z,3.40
2019-04-29T02:39:48.127Z,3.40
2019-04-29T02:42:34.947Z,3.30
2019-04-29T02:45:06.488Z,3.30
2019-04-29T02:47:35.010Z,3.30
2019-04-29T02:50:04.723Z,3.30
2019-04-29T02:52:33.173Z,3.20
2019-04-29T02:55:03.272Z,3.10
2019-04-29T02:57:33.527Z,3.10
2019-04-29T03:00:06.792Z,3.10
2019-04-29T03:02:36.967Z,3.10
2019-04-29T03:05:10.136Z,3.10
2019-04-29T03:07:38.791Z,3.10
2019-04-29T03:10:07.644Z,3.10
2019-04-29T03:12:36.270Z,3.10
2019-04-29T03:15:06.436Z,3.20
2019-04-29T03:17:35.129Z,3.20
2019-04-29T03:20:12.461Z,3.20
2019-04-29T03:22:42.540Z,3.20
2019-04-29T03:25:11.069Z,3.10
2019-04-29T03:27:39.507Z,3.10
2019-04-29T03:30:09.209Z,3.00
2019-04-29T03:32:37.741Z,2.90
2019-04-29T03:35:07.035Z,2.80
2019-04-29T03:37:35.551Z,2.80
2019-04-29T03:40:06.120Z,2.80
2019-04-29T03:42:34.591Z,2.80
2019-04-29T03:45:03.462Z,2.80
2019-04-29T03:47:34.916Z,2.90
2019-04-29T03:50:03.621Z,2.80
2019-04-29T03:52:32.218Z,2.80
2019-04-29T03:55:00.679Z,2.80
2019-04-29T03:57:30.859Z,2.70
2019-04-29T03:59:59.368Z,2.60
2019-04-29T04:02:44.637Z,2.70
2019-04-29T04:05:14.914Z,2.60
2019-04-29T04:08:01.194Z,2.60
2019-04-29T04:10:29.799Z,2.60
2019-04-29T04:12:58.386Z,2.60
2019-04-29T04:15:26.854Z,2.60
2019-04-29T04:17:57.027Z,2.60
2019-04-29T04:20:25.611Z,2.60
2019-04-29T04:22:54.105Z,2.60
2019-04-29T04:25:22.679Z,2.70
2019-04-29T04:27:51.124Z,2.80
2019-04-29T04:30:20.046Z,3.00
2019-04-29T04:32:48.550Z,3.00
2019-04-29T04:35:17.220Z,3.10
2019-04-29T04:37:45.688Z,3.00
2019-04-29T04:40:16.131Z,3.20
2019-04-29T04:42:44.645Z,3.20
2019-04-29T04:45:14.474Z,3.50
2019-04-29T04:47:42.931Z,3.70
2019-04-29T04:50:11.755Z,3.70
2019-04-29T04:52:40.196Z,3.70
2019-04-29T04:55:09.153Z,3.80
2019-04-29T04:57:37.686Z,3.90
2019-04-29T05:00:19.976Z,4.00
2019-04-29T05:02:46.981Z,4.10
2019-04-29T05:05:15.492Z,4.40
2019-04-29T05:07:44.103Z,4.60
2019-04-29T05:10:12.718Z,4.80
2019-04-29T05:12:41.184Z,5.20
2019-04-29T05:15:10.040Z,5.40
2019-04-29T05:17:38.512Z,5.70
2019-04-29T05:20:07.505Z,6.80
2019-04-29T05:22:36.019Z,7.10
2019-04-29T05:25:06.298Z,7.40
2019-04-29T05:27:34.814Z,7.80
2019-04-29T05:30:05.395Z,8.10
2019-04-29T05:32:33.835Z,8.20
2019-04-29T05:35:03.999Z,8.40
2019-04-29T05:37:34.099Z,8.70
2019-04-29T05:40:02.752Z,8.90
2019-04-29T05:42:31.281Z,9.10
2019-04-29T05:45:04.162Z,9.30
2019-04-29T05:47:39.990Z,9.50
2019-04-29T05:50:26.688Z,9.80
2019-04-29T05:52:59.536Z,10.00
2019-04-29T05:55:28.331Z,10.10
2019-04-29T05:58:03.062Z,10.30
2019-04-29T06:00:28.610Z,10.20
2019-04-29T06:02:57.103Z,10.30
2019-04-29T06:05:25.560Z,10.40
2019-04-29T06:07:56.094Z,10.50
2019-04-29T06:10:24.750Z,10.70
2019-04-29T06:12:53.395Z,10.80
2019-04-29T06:15:21.871Z,10.90
2019-04-29T06:17:50.339Z,11.00
2019-04-29T06:20:22.654Z,11.30
2019-04-29T06:22:48.967Z,11.40
2019-04-29T06:25:17.422Z,11.50
2019-04-29T06:27:45.951Z,11.10
2019-04-29T06:30:14.562Z,11.00
2019-04-29T06:32:43.096Z,10.90
2019-04-29T06:35:14.227Z,11.10
2019-04-29T06:37:41.874Z,11.10
2019-04-29T06:40:10.747Z,11.10
2019-04-29T06:42:39.196Z,11.10
2019-04-29T06:45:08.209Z,11.30
2019-04-29T06:47:36.702Z,11.20
2019-04-29T06:50:09.344Z,11.20
2019-04-29T06:52:37.802Z,11.30
2019-04-29T06:55:06.588Z,11.50
2019-04-29T06:57:35.047Z,11.50
2019-04-29T07:00:06.967Z,11.40
2019-04-29T07:02:35.435Z,11.40
2019-04-29T07:05:07.440Z,11.30
2019-04-29T07:07:35.900Z,11.20
2019-04-29T07:10:05.740Z,11.20
2019-04-29T07:12:34.263Z,11.30
2019-04-29T07:15:02.851Z,11.30
2019-04-29T07:17:31.335Z,11.30
2019-04-29T07:20:01.957Z,11.20
2019-04-29T07:22:31.209Z,11.30
2019-04-29T07:24:59.892Z,11.40
2019-04-29T07:27:28.355Z,11.40
2019-04-29T07:29:56.798Z,11.60
2019-04-29T07:32:25.271Z,11.60
2019-04-29T07:34:53.819Z,11.60
2019-04-29T07:37:22.286Z,11.50
2019-04-29T07:39:50.805Z,11.50
2019-04-29T07:42:19.264Z,11.60
2019-04-29T07:44:52.805Z,11.60
2019-04-29T07:47:19.540Z,11.40
2019-04-29T07:49:51.490Z,11.50
2019-04-29T07:52:18.192Z,11.60
2019-04-29T07:54:48.253Z,11.70
2019-04-29T07:57:18.063Z,11.70
2019-04-29T07:59:46.712Z,11.90
2019-04-29T08:02:15.178Z,12.00
2019-04-29T08:04:43.627Z,12.00
2019-04-29T08:07:12.156Z,12.10
2019-04-29T08:09:44.271Z,12.00
2019-04-29T08:12:12.675Z,11.60
2019-04-29T08:14:43.064Z,11.80
2019-04-29T08:17:11.523Z,11.50
2019-04-29T08:19:39.971Z,11.50
2019-04-29T08:22:08.433Z,11.60
2019-04-29T08:24:37.530Z,11.60
2019-04-29T08:27:06.225Z,11.70
2019-04-29T08:29:35.863Z,11.80
2019-04-29T08:32:05.041Z,11.90
2019-04-29T08:34:33.551Z,12.10
2019-04-29T08:37:02.061Z,11.90
2019-04-29T08:39:31.216Z,12.00
2019-04-29T08:42:03.698Z,11.70
2019-04-29T08:44:49.958Z,11.60
2019-04-29T08:47:23.076Z,11.70
2019-04-29T08:49:50.277Z,11.80
2019-04-29T08:52:18.727Z,11.90
2019-04-29T08:54:50.626Z,11.70
2019-04-29T08:57:17.432Z,12.00
2019-04-29T08:59:45.894Z,11.80
2019-04-29T09:02:14.423Z,11.80
2019-04-29T09:04:53.360Z,11.70
2019-04-29T09:07:17.391Z,11.60
2019-04-29T09:09:43.368Z,11.70
2019-04-29T09:12:11.835Z,11.70
2019-04-29T09:14:40.299Z,12.00
2019-04-29T09:17:19.740Z,12.20
2019-04-29T09:19:39.527Z,12.00
2019-04-29T09:22:09.782Z,12.10
2019-04-29T09:24:43.691Z,12.20
2019-04-29T09:27:11.774Z,11.90
2019-04-29T09:29:40.224Z,11.90
2019-04-29T09:32:08.902Z,11.70
2019-04-29T09:34:37.434Z,11.60
2019-04-29T09:37:06.106Z,11.30
2019-04-29T09:39:42.908Z,11.40
2019-04-29T09:42:26.019Z,11.00
2019-04-29T09:44:58.978Z,11.30
2019-04-29T09:47:27.806Z,11.50
2019-04-29T09:49:56.267Z,11.50
2019-04-29T09:52:24.711Z,11.40
2019-04-29T09:54:53.170Z,11.30
2019-04-29T09:57:21.632Z,11.40
2019-04-29T10:00:05.259Z,11.50
2019-04-29T10:02:41.423Z,11.30
2019-04-29T10:05:14.841Z,11.20
2019-04-29T10:07:43.524Z,11.30
2019-04-29T10:10:12.757Z,11.40
2019-04-29T10:12:41.271Z,11.20
2019-04-29T10:15:11.603Z,11.30
2019-04-29T10:17:50.969Z,11.40
2019-04-29T10:20:22.538Z,11.50
2019-04-29T10:22:53.861Z,11.50
2019-04-29T10:25:21.271Z,11.80
2019-04-29T10:27:49.809Z,11.60
2019-04-29T10:30:20.523Z,11.50
2019-04-29T10:32:48.987Z,11.40
2019-04-29T10:35:17.515Z,11.50
2019-04-29T10:37:46.047Z,11.40
2019-04-29T10:40:24.739Z,11.40
2019-04-29T10:42:59.446Z,11.50
2019-04-29T10:45:35.300Z,11.30
2019-04-29T10:48:25.273Z,11.20
2019-04-29T10:50:55.755Z,11.20
2019-04-29T10:53:24.240Z,11.00
2019-04-29T10:55:52.900Z,11.10
2019-04-29T10:58:21.920Z,11.10
2019-04-29T11:01:14.159Z,11.00
2019-04-29T11:03:43.239Z,10.90
2019-04-29T11:06:11.978Z,11.00
2019-04-29T11:08:47.636Z,11.00
2019-04-29T11:11:23.365Z,10.90
2019-04-29T11:13:50.315Z,11.00
2019-04-29T11:16:17.067Z,11.10
2019-04-29T11:18:45.601Z,11.20
2019-04-29T11:21:14.190Z,11.30
2019-04-29T11:23:50.662Z,11.40
2019-04-29T11:26:35.017Z,11.40
2019-04-29T11:29:07.398Z,11.30
2019-04-29T11:31:36.190Z,11.30
2019-04-29T11:34:18.972Z,11.50
2019-04-29T11:36:47.691Z,11.60
2019-04-29T11:39:16.474Z,11.60
2019-04-29T11:41:45.072Z,11.40
2019-04-29T11:44:13.518Z,11.60
2019-04-29T11:46:44.708Z,11.70
2019-04-29T11:49:13.764Z,11.80
2019-04-29T11:52:07.662Z,12.00
2019-04-29T11:54:18.050Z,12.30
2019-04-29T11:56:46.807Z,12.40
2019-04-29T11:59:22.562Z,12.40
2019-04-29T12:01:59.770Z,12.30
2019-04-29T12:04:33.379Z,12.30
2019-04-29T12:07:00.243Z,12.30
2019-04-29T12:09:30.433Z,12.00
2019-04-29T12:11:59.110Z,12.00
2019-04-29T12:14:38.085Z,11.90
2019-04-29T12:17:25.304Z,12.00
2019-04-29T12:19:55.474Z,11.90
2019-04-29T12:22:30.124Z,11.90
2019-04-29T12:24:54.316Z,11.90
2019-04-29T12:27:23.205Z,11.60
2019-04-29T12:29:54.246Z,11.60
2019-04-29T12:32:38.686Z,11.70
2019-04-29T12:35:21.508Z,11.70
2019-04-29T12:38:05.933Z,11.70
2019-04-29T12:40:36.713Z,11.80
2019-04-29T12:43:11.377Z,12.00
2019-04-29T12:45:41.960Z,12.00
2019-04-29T12:48:23.621Z,11.90
2019-04-29T12:50:40.814Z,12.00
2019-04-29T12:53:09.355Z,11.90
2019-04-29T12:55:44.970Z,11.70
2019-04-29T12:58:10.383Z,11.80
2019-04-29T13:00:47.482Z,11.70
2019-04-29T13:03:30.880Z,11.70
2019-04-29T13:06:05.416Z,11.80
2019-04-29T13:08:47.903Z,11.80
2019-04-29T13:11:19.084Z,11.70
2019-04-29T13:13:46.675Z,11.80
2019-04-29T13:16:22.037Z,11.90
2019-04-29T13:18:53.777Z,11.90
2019-04-29T13:21:22.624Z,11.80
2019-04-29T13:23:59.553Z,11.80
2019-04-29T13:26:28.423Z,11.90
2019-04-29T13:29:00.334Z,12.00
2019-04-29T13:31:37.023Z,11.80
2019-04-29T13:33:53.454Z,11.90
2019-04-29T13:36:25.884Z,12.00
2019-04-29T13:38:52.103Z,12.10
2019-04-29T13:41:25.778Z,12.20
2019-04-29T13:43:52.688Z,12.30
2019-04-29T13:46:25.764Z,12.00
2019-04-29T13:49:13.466Z,12.00
2019-04-29T13:51:39.603Z,11.90
2019-04-29T13:54:08.205Z,11.80
2019-04-29T13:56:54.545Z,11.90
2019-04-29T13:59:11.038Z,11.90
2019-04-29T14:01:58.439Z,12.00
2019-04-29T14:04:12.163Z,11.80
2019-04-29T14:06:55.834Z,11.70
2019-04-29T14:09:12.792Z,11.80
2019-04-29T14:11:41.250Z,11.90
2019-04-29T14:14:09.714Z,11.90
2019-04-29T14:16:38.247Z,11.90
2019-04-29T14:19:08.633Z,11.90
2019-04-29T14:21:36.952Z,12.00
2019-04-29T14:24:05.474Z,12.00
2019-04-29T14:26:37.043Z,12.10
2019-04-29T14:29:04.751Z,12.00
2019-04-29T14:31:33.273Z,12.00
2019-04-29T14:34:03.443Z,11.80
2019-04-29T14:36:32.036Z,11.80
2019-04-29T14:39:00.507Z,11.80
2019-04-29T14:41:30.596Z,11.90
2019-04-29T14:44:00.768Z,11.90
2019-04-29T14:46:39.852Z,11.80
2019-04-29T14:49:09.957Z,11.90
2019-04-29T14:51:38.473Z,11.80
2019-04-29T14:54:07.562Z,11.80
2019-04-29T14:56:36.224Z,11.80
2019-04-29T14:59:07.415Z,11.70
2019-04-29T15:01:53.259Z,11.70
2019-04-29T15:04:23.398Z,11.80
2019-04-29T15:06:51.950Z,11.80
2019-04-29T15:09:20.489Z,11.80
2019-04-29T15:12:02.994Z,11.80
2019-04-29T15:14:33.302Z,11.80
2019-04-29T15:17:03.596Z,11.80
2019-04-29T15:19:33.692Z,11.80
2019-04-29T15:22:03.805Z,11.80
2019-04-29T15:24:34.081Z,11.90
2019-04-29T15:27:02.723Z,11.90
2019-04-29T15:29:33.476Z,11.80
2019-04-29T15:32:01.419Z,11.80
2019-04-29T15:34:29.969Z,11.80
2019-04-29T15:36:58.554Z,11.80
2019-04-29T15:39:27.295Z,11.90
2019-04-29T15:41:56.000Z,11.80
2019-04-29T15:44:24.544Z,11.70
2019-04-29T15:46:53.007Z,11.70
2019-04-29T15:49:24.671Z,11.60
2019-04-29T15:51:51.638Z,11.70
2019-04-29T15:54:20.083Z,11.60
2019-04-29T15:56:48.738Z,11.70
2019-04-29T15:59:17.609Z,11.60
2019-04-29T16:01:46.235Z,11.60
2019-04-29T16:04:27.861Z,11.70
2019-04-29T16:07:08.775Z,11.70
2019-04-29T16:09:55.111Z,11.60
2019-04-29T16:12:34.251Z,11.70
2019-04-29T16:15:03.100Z,11.60
2019-04-29T16:17:37.399Z,11.60
2019-04-29T16:20:01.800Z,11.60
2019-04-29T16:22:30.281Z,11.50
2019-04-29T16:24:59.644Z,11.40
2019-04-29T16:27:28.962Z,11.40
2019-04-29T16:29:57.443Z,11.40
2019-04-29T16:32:33.463Z,11.30
2019-04-29T16:35:01.940Z,11.30
2019-04-29T16:37:31.874Z,11.20
2019-04-29T16:40:01.358Z,11.20
2019-04-29T16:42:31.650Z,11.20
2019-04-29T16:45:00.200Z,11.20
2019-04-29T16:47:29.567Z,11.10
2019-04-29T16:50:04.582Z,11.10
2019-04-29T16:52:28.299Z,11.10
2019-04-29T16:54:59.089Z,11.10
2019-04-29T16:57:27.094Z,11.00
2019-04-29T16:59:55.538Z,11.00
2019-04-29T17:02:24.610Z,11.00
2019-04-29T17:04:53.270Z,10.90
2019-04-29T17:07:21.885Z,10.90
2019-04-29T17:09:52.130Z,10.90
2019-04-29T17:12:20.812Z,10.90
2019-04-29T17:15:03.969Z,10.90
2019-04-29T17:17:28.503Z,11.00
2019-04-29T17:19:51.631Z,10.90
2019-04-29T17:22:25.938Z,10.90
2019-04-29T17:24:50.531Z,10.90
2019-04-29T17:27:42.331Z,10.90
2019-04-29T17:30:20.864Z,10.90
2019-04-29T17:33:04.171Z,10.80
2019-04-29T17:35:34.560Z,10.80
2019-04-29T17:38:03.079Z,10.80
2019-04-29T17:40:31.812Z,10.80
2019-04-29T17:43:11.199Z,10.80
2019-04-29T17:45:47.560Z,10.80
2019-04-29T17:48:33.099Z,10.60
2019-04-29T17:51:03.309Z,10.60
2019-04-29T17:53:36.524Z,10.60
2019-04-29T17:56:24.868Z,10.50
2019-04-29T17:59:00.518Z,10.50
2019-04-29T18:01:31.998Z,10.40
2019-04-29T18:04:02.289Z,10.40
2019-04-29T18:06:41.146Z,10.30
2019-04-29T18:09:26.875Z,10.30
2019-04-29T18:11:57.522Z,10.30
2019-04-29T18:14:36.589Z,10.30
2019-04-29T18:16:55.915Z,10.30
2019-04-29T18:19:30.841Z,10.40
2019-04-29T18:22:00.859Z,10.30
2019-04-29T18:24:37.098Z,10.20
2019-04-29T18:27:08.224Z,10.10
2019-04-29T18:29:41.553Z,10.10
2019-04-29T18:32:08.064Z,10.10
2019-04-29T18:34:37.430Z,10.20
2019-04-29T18:37:06.607Z,10.30
2019-04-29T18:39:35.850Z,10.30
2019-04-29T18:42:06.703Z,10.30
2019-04-29T18:44:35.769Z,10.30
2019-04-29T18:47:05.529Z,10.30
2019-04-29T18:49:34.237Z,10.30
2019-04-29T18:52:05.633Z,10.30
2019-04-29T18:54:32.935Z,10.30
2019-04-29T18:57:01.399Z,10.40
2019-04-29T18:59:33.337Z,10.40
2019-04-29T19:02:00.984Z,10.40
2019-04-29T19:04:53.389Z,10.50
2019-04-29T19:07:20.351Z,10.40
2019-04-29T19:10:14.336Z,10.40
2019-04-29T19:12:39.409Z,10.40
2019-04-29T19:15:11.464Z,10.40
2019-04-29T19:17:39.992Z,10.40
2019-04-29T19:20:13.078Z,10.30
2019-04-29T19:22:39.948Z,10.30
2019-04-29T19:25:11.755Z,10.30
2019-04-29T19:27:40.055Z,10.30
2019-04-29T19:30:09.356Z,10.20
2019-04-29T19:32:38.838Z,10.20
2019-04-29T19:35:07.855Z,10.20
2019-04-29T19:37:39.618Z,10.20
2019-04-29T19:40:08.321Z,10.20
2019-04-29T19:42:39.765Z,10.20
2019-04-29T19:45:13.111Z,10.10
2019-04-29T19:47:37.409Z,10.20
2019-04-29T19:50:10.137Z,10.30
2019-04-29T19:52:37.570Z,10.20
2019-04-29T19:55:07.155Z,10.20
2019-04-29T19:57:37.980Z,10.10
2019-04-29T20:00:08.562Z,10.10
2019-04-29T20:02:45.317Z,10.10
2019-04-29T20:05:10.217Z,10.00
2019-04-29T20:07:42.353Z,9.90
2019-04-29T20:10:10.704Z,9.90
2019-04-29T20:12:39.948Z,9.80
2019-04-29T20:15:09.651Z,9.70
2019-04-29T20:17:57.038Z,9.70
2019-04-29T20:20:38.695Z,9.80
2019-04-29T20:23:07.107Z,9.80
2019-04-29T20:25:38.255Z,9.80
2019-04-29T20:28:08.721Z,9.90
2019-04-29T20:30:36.361Z,10.00
2019-04-29T20:33:11.072Z,9.90
2019-04-29T20:35:35.774Z,9.90
2019-04-29T20:38:05.609Z,9.90
2019-04-29T20:40:36.301Z,9.90
2019-04-29T20:43:05.771Z,9.90
2019-04-29T20:45:35.481Z,9.80
2019-04-29T20:48:06.206Z,9.70
2019-04-29T20:50:35.427Z,9.70
2019-04-29T20:53:09.046Z,9.80
2019-04-29T20:55:38.624Z,9.90
2019-04-29T20:58:07.385Z,9.90
2019-04-29T21:00:37.870Z,10.00
2019-04-29T21:03:09.352Z,10.00
2019-04-29T21:05:47.463Z,10.00
2019-04-29T21:08:14.632Z,10.00
2019-04-29T21:10:38.035Z,10.00
2019-04-29T21:13:25.794Z,9.90
2019-04-29T21:15:59.602Z,9.90
2019-04-29T21:18:28.339Z,10.00
2019-04-29T21:20:59.683Z,10.00
2019-04-29T21:23:31.424Z,10.00
2019-04-29T21:26:00.541Z,10.00
2019-04-29T21:28:27.486Z,9.90
2019-04-29T21:30:56.083Z,9.90
2019-04-29T21:33:25.549Z,9.80
2019-04-29T21:35:57.859Z,9.80
2019-04-29T21:38:39.863Z,9.90
2019-04-29T21:41:09.963Z,9.90
2019-04-29T21:43:46.950Z,10.00
2019-04-29T21:46:13.215Z,9.90
2019-04-29T21:48:41.742Z,9.90
2019-04-29T21:51:11.218Z,9.90
2019-04-29T21:53:40.471Z,9.90
2019-04-29T21:56:09.547Z,9.90
2019-04-29T21:58:38.219Z,9.90
2019-04-29T22:01:07.384Z,9.90
2019-04-29T22:03:35.831Z,10.00
2019-04-29T22:06:04.358Z,10.00
2019-04-29T22:08:32.874Z,10.00
2019-04-29T22:11:04.794Z,10.00
2019-04-29T22:13:36.752Z,10.00
2019-04-29T22:16:01.894Z,10.10
2019-04-29T22:18:30.507Z,10.10
2019-04-29T22:20:59.087Z,10.10
2019-04-29T22:23:27.554Z,10.10
2019-04-29T22:25:56.795Z,10.10
2019-04-29T22:28:25.337Z,10.00
2019-04-29T22:30:54.931Z,10.00
2019-04-29T22:33:25.245Z,10.00
2019-04-29T22:35:55.460Z,9.90
2019-04-29T22:38:24.985Z,9.90
2019-04-29T22:40:55.219Z,9.90
2019-04-29T22:43:28.035Z,9.80
2019-04-29T22:45:56.571Z,9.90
2019-04-29T22:48:25.119Z,9.90
2019-04-29T22:50:55.491Z,9.90
2019-04-29T22:53:24.918Z,9.90
2019-04-29T22:55:53.564Z,9.90
2019-04-29T22:58:22.009Z,9.90
2019-04-29T23:00:50.535Z,9.90
2019-04-29T23:03:18.974Z,9.90
2019-04-29T23:05:47.575Z,9.90
2019-04-29T23:08:16.086Z,9.90
2019-04-29T23:10:45.616Z,9.90
2019-04-29T23:13:14.351Z,9.90
2019-04-29T23:15:42.870Z,9.90
2019-04-29T23:18:11.399Z,9.80
2019-04-29T23:20:47.347Z,9.90
2019-04-29T23:23:19.951Z,9.80
2019-04-29T23:25:50.271Z,9.80
2019-04-29T23:28:22.515Z,9.80
2019-04-29T23:30:52.126Z,9.80
2019-04-29T23:33:22.989Z,9.80
2019-04-29T23:35:49.315Z,9.90
2019-04-29T23:38:17.762Z,9.90
2019-04-29T23:40:49.609Z,9.80
2019-04-29T23:43:20.029Z,9.80
2019-04-29T23:45:46.845Z,9.80
2019-04-29T23:48:15.287Z,9.80
2019-04-29T23:50:45.385Z,9.80
2019-04-29T23:53:14.069Z,9.70
2019-04-29T23:55:42.524Z,9.70
2019-04-29T23:58:12.607Z,9.70
